EDT,Max TemperatureF,Mean TemperatureF,Min TemperatureF,Max Dew PointF,MeanDew PointF,Min DewpointF,Max Humidity, Mean Humidity, Min Humidity, Max Sea Level PressureIn, Mean Sea Level PressureIn, Min Sea Level PressureIn, Max VisibilityMiles, Mean VisibilityMiles, Min VisibilityMiles, Max Wind SpeedMPH, Mean Wind SpeedMPH, Max Gust SpeedMPH,PrecipitationIn, CloudCover, Events, WindDirDegrees
2013-10-1,81,67,53,57,54,50,93,66,39,30.09,30.04,29.99,10,10,8,16,4,22,0.00,3,,267
2013-10-2,85,72,59,59,56,54,80,59,37,30.10,30.05,30.02,10,10,10,15,5,22,0.00,0,,241
2013-10-3,84,70,55,62,58,53,93,70,46,30.15,30.09,30.04,10,8,4,9,1,24,0.00,0,,140
2013-10-4,86,72,58,63,60,56,100,71,42,30.12,30.06,30.03,10,7,2,12,3,21,0.00,3,,227
2013-10-5,88,75,61,63,61,59,93,67,40,30.11,30.05,30.00,10,10,6,10,2,15,0.00,2,,182
2013-10-6,89,74,59,62,60,57,97,67,36,30.02,29.96,29.88,10,8,1,21,7,28,0.00,1,,167
2013-10-7,73,63,53,66,57,41,93,71,48,30.09,29.85,29.75,10,8,0,25,8,38,0.64,5,Fog-Rain,226
2013-10-8,69,58,47,45,42,38,82,58,34,30.31,30.24,30.10,10,10,10,13,4,17,0.00,0,,17
2013-10-9,62,56,49,45,43,36,80,58,36,30.37,30.31,30.27,10,10,10,10,5,18,0.03,1,Rain,18
2013-10-10,55,54,52,52,50,44,93,80,66,30.25,30.13,30.06,10,4,1,15,8,21,2.78,8,Rain,356
2013-10-11,60,57,54,58,55,52,93,90,86,30.05,30.03,30.00,10,5,2,13,8,17,1.07,8,Rain,352
2013-10-12,68,63,58,59,57,53,97,83,68,30.20,30.10,30.03,10,7,2,12,6,16,0.21,8,Rain,16
2013-10-13,59,58,57,56,55,54,93,90,86,30.34,30.29,30.21,10,4,1,12,4,14,0.54,8,Rain,17
2013-10-14,66,60,53,55,53,51,93,76,58,30.36,30.31,30.25,10,9,2,7,1,,0.00,8,,11
2013-10-15,70,59,48,55,50,46,100,74,47,30.25,30.19,30.09,10,3,0,5,0,15,0.00,1,Fog,156
2013-10-16,70,59,48,58,53,46,93,77,61,30.08,30.01,29.91,10,10,7,9,2,12,0.00,3,,178
2013-10-17,74,65,56,63,57,44,100,79,57,29.90,29.84,29.71,10,10,9,24,5,35,0.09,6,Rain,208
2013-10-18,65,54,42,43,39,37,89,63,37,30.03,29.98,29.90,10,10,10,20,7,28,0.00,1,,282
2013-10-19,63,51,38,52,43,37,93,74,54,30.01,29.90,29.78,10,9,4,22,5,28,0.02,4,Rain,219
2013-10-20,61,49,37,37,34,31,85,59,32,30.10,30.04,29.93,10,10,10,16,6,23,0.00,0,,264
2013-10-21,68,51,34,40,37,32,96,64,32,30.15,30.06,29.94,10,10,6,15,4,24,0.00,0,,176
2013-10-22,61,50,38,47,39,31,83,60,36,29.91,29.88,29.85,10,10,10,17,4,23,0.00,2,,274
2013-10-23,50,42,33,36,33,31,92,71,50,29.92,29.80,29.72,10,10,2,18,5,24,T,4,,296
2013-10-24,49,42,35,34,30,26,79,62,45,30.16,30.05,29.94,10,10,6,22,8,31,0.01,5,Rain,252
2013-10-25,53,41,29,31,27,25,78,59,39,30.33,30.27,30.16,10,10,10,21,8,32,0.00,0,,262
2013-10-26,56,42,28,28,25,23,85,57,29,30.31,30.12,29.94,10,10,10,23,8,29,0.00,2,,201
2013-10-27,59,47,34,34,30,27,82,57,32,30.16,30.06,29.98,10,10,10,17,6,22,0.00,1,,283
2013-10-28,61,45,29,37,32,27,92,65,37,30.30,30.24,30.15,10,10,2,6,1,16,0.00,0,,93
2013-10-29,61,46,31,39,35,28,96,68,39,30.41,30.35,30.30,10,9,6,8,1,21,0.00,1,,347
2013-10-30,67,56,45,51,46,40,93,73,52,30.31,30.22,30.14,10,8,2,5,0,7,0.05,6,Rain,110
2013-10-31,68,60,52,58,54,50,96,82,68,30.15,29.98,29.71,10,7,2,15,5,23,0.04,6,Rain,160